EW0596 Weather Reports


Display with metric or nautical units.
time (UTC)temp
F
wind
direction
speed
MPH
gust
MPH
rain 1hr
in
rain 24hr
in
rain mn
in
humidity
%
barometer
mb
20210804163041 80 11 0.0 4.0 0.00 0.00 0.00 40 1011.4
20210804161542 79 87 1.0 7.0 0.00 0.00 0.00 42 1011.4
20210804160017 78 30 1.0 6.0 0.00 0.00 0.00 44 1011.5
20210804154515 78 66 1.0 7.0 0.00 0.00 0.00 42 1011.8
20210804153123 77 94 0.0 5.0 0.00 0.00 0.00 45 1011.7
20210804151607 77 71 3.0 8.0 0.00 0.00 0.00 43 1012.0
20210804150116 75 72 2.0 9.0 0.00 0.00 0.00 45 1012.1
20210804144540 72 173 0.0 5.0 0.00 0.00 0.00 53 1012.3
20210804143007 71 212 1.0 3.0 0.00 0.00 0.00 54 1012.2
20210804141507 71 321 0.0 2.0 0.00 0.00 0.00 54 1012.2
20210804140107 70 319 0.0 2.0 0.00 0.00 0.00 54 1012.2
20210804134605 71 299 1.0 4.0 0.00 0.00 0.00 53 1011.8
20210804133044 70 330 1.0 5.0 0.00 0.00 0.00 53 1011.7
20210804131558 70 188 1.0 3.0 0.00 0.00 0.00 54 1011.1
20210804130006 70 137 1.0 3.0 0.00 0.00 0.00 54 1010.5
20210804124506 71 128 0.0 3.0 0.00 0.00 0.00 52 1010.4
20210804123115 71 113 1.0 7.0 0.00 0.00 0.00 50 1010.5
20210804121642 72 100 0.0 2.0 0.00 0.00 0.00 48 1010.9
20210804120201 75 159 0.0 5.0 0.00 0.00 0.00 44 1011.1
20210804114623 75 70 2.0 10.0 0.00 0.00 0.00 42 1011.2
20210804113053 75 37 3.0 9.0 0.00 0.00 0.00 43 1011.3
20210804111617 75 80 1.0 9.0 0.00 0.00 0.00 43 1011.7
20210804110137 76 57 3.0 11.0 0.00 0.00 0.00 42 1011.7
20210804104609 75 86 2.0 12.0 0.00 0.00 0.00 43 1011.8
20210804103037 73 97 0.0 9.0 0.00 0.00 0.00 46 1011.5
20210804101614 71 342 0.0 3.0 0.00 0.00 0.00 49 1011.8
20210804100233 69 187 0.0 4.0 0.00 0.00 0.00 52 1011.5
20210804094639 69 171 0.0 4.0 0.00 0.00 0.00 52 1011.5
20210804093048 67 131 0.0 3.0 0.00 0.00 0.00 55 1011.7
20210804091552 67 86 0.0 2.0 0.00 0.00 0.00 58 1011.7
20210804090042 66 63 1.0 5.0 0.00 0.00 0.00 59 1011.5
20210804084529 66 258 0.0 3.0 0.00 0.00 0.00 60 1011.5
20210804083329 65 9 0.0 3.0 0.00 0.00 0.00 60 1011.4
20210804081705 66 226 0.0 1.0 0.00 0.00 0.00 56 1010.9
20210804080116 66 226 0.0 2.0 0.00 0.00 0.00 58 1010.8
20210804074610 66 322 0.0 3.0 0.00 0.00 0.00 56 1010.6
20210804073021 67 279 0.0 1.0 0.00 0.00 0.00 56 1010.4
20210804071549 66 279 0.0 1.0 0.00 0.00 0.00 55 1010.2
20210804070146 66 279 0.0 0.0 0.00 0.00 0.00 52 1010.0
20210804064730 66 279 0.0 1.0 0.00 0.00 0.00 50 1009.9
20210804063110 66 279 0.0 2.0 0.00 0.00 0.00 50 1010.0
20210804061612 67 279 0.0 2.0 0.00 0.00 0.00 49 1010.0
20210804060032 67 277 0.0 0.0 0.00 0.00 0.00 47 1009.8
20210804054519 69 277 0.0 0.0 0.00 0.00 0.00 45 1009.9
20210804051703 69 277 0.0 0.0 0.00 0.00 0.00 44 1010.0
20210804050236 70 277 0.0 2.0 0.00 0.00 0.00 42 1010.3
20210804044637 71 265 0.0 0.0 0.00 0.00 0.00 41 1010.3
20210804043058 71 265 0.0 1.0 0.00 0.00 0.00 40 1010.2
20210804041558 74 265 0.0 1.0 0.00 0.00 0.00 38 1010.2
20210804040027 74 265 0.0 1.0 0.00 0.00 0.00 37 1010.0
20210804034624 76 265 0.0 1.0 0.00 0.00 0.00 36 1009.9
20210804033141 77 265 0.0 1.0 0.00 0.00 0.00 35 1009.7
20210804031616 79 265 0.0 1.0 0.00 0.00 0.00 32 1009.7
20210804030116 82 265 0.0 0.0 0.00 0.00 0.00 31 1009.6
20210804024543 84 265 0.0 0.0 0.00 0.00 0.00 30 1009.3
20210804023037 87 265 0.0 1.0 0.00 0.00 0.00 29 1009.2
20210804021636 90 265 0.0 2.0 0.00 0.00 0.00 26 1009.3
20210804020030 92 264 0.0 0.0 0.00 0.00 0.00 22 1009.4
20210804014536 92 264 0.0 1.0 0.00 0.00 0.00 22 1009.4
20210804013120 92 264 0.0 2.0 0.00 0.00 0.00 22 1009.6
20210804011524 93 263 0.0 3.0 0.00 0.00 0.00 22 1009.8
20210804010021 93 248 0.0 3.0 0.00 0.00 0.00 22 1009.9
20210804004506 94 252 0.0 3.0 0.00 0.00 0.00 20 1010.1
20210804003131 94 264 0.0 3.0 0.00 0.00 0.00 21 1010.2
20210804001656 94 313 0.0 6.0 0.00 0.00 0.00 21 1010.4
20210804000126 94 321 2.0 6.0 0.00 0.00 0.00 20 1010.6
20210803234606 94 189 0.0 7.0 0.00 0.00 0.00 20 1010.8
20210803233032 95 312 1.0 6.0 0.00 0.00 0.00 19 1011.1
20210803231753 95 349 0.0 4.0 0.00 0.00 0.00 19 1011.4
20210803230234 96 291 1.0 6.0 0.00 0.00 0.00 18 1011.5
20210803224602 97 277 1.0 7.0 0.00 0.00 0.00 18 1011.7
20210803223059 96 272 1.0 6.0 0.00 0.00 0.00 18 1012.0
20210803221537 96 269 1.0 5.0 0.00 0.00 0.00 17 1012.1
20210803220021 96 252 1.0 7.0 0.00 0.00 0.00 17 1012.2
20210803214610 96 253 1.0 5.0 0.00 0.00 0.00 19 1012.4
20210803213220 95 219 2.0 8.0 0.00 0.00 0.00 22 1012.5
20210803211632 95 350 0.0 4.0 0.00 0.00 0.00 20 1012.7
20210803210047 95 182 3.0 6.0 0.00 0.00 0.00 20 1013.0
20210803204510 94 227 2.0 7.0 0.00 0.00 0.00 20 1013.0
20210803203005 94 233 3.0 6.0 0.00 0.00 0.00 23 1013.1
20210803201643 93 273 1.0 6.0 0.00 0.00 0.00 22 1013.4
20210803200059 92 190 1.0 5.0 0.00 0.00 0.00 23 1013.4
20210803194554 90 161 1.0 6.0 0.00 0.00 0.00 31 1013.6
20210803193033 89 236 2.0 5.0 0.00 0.00 0.00 39 1013.7
20210803191653 88 159 1.0 4.0 0.00 0.00 0.00 39 1013.9
20210803190220 87 199 1.0 4.0 0.00 0.00 0.00 43 1014.1
20210803184658 85 269 2.0 4.0 0.00 0.00 0.00 44 1014.3
20210803183115 84 161 1.0 3.0 0.00 0.00 0.00 49 1014.5
20210803181510 83 227 2.0 4.0 0.00 0.00 0.00 49 1014.6
20210803180007 82 155 0.0 4.0 0.00 0.00 0.00 54 1014.8
20210803174714 80 58 1.0 4.0 0.00 0.00 0.00 56 1014.8
20210803173130 79 61 1.0 5.0 0.00 0.00 0.00 59 1015.0
20210803171521 78 177 0.0 3.0 0.00 0.00 0.00 62 1015.1
20210803170027 76 157 0.0 2.0 0.00 0.00 0.00 66 1015.2
20210803164754 75 109 0.0 4.0 0.00 0.00 0.00 69 1015.3
20210803163208 72 209 0.0 2.0 0.00 0.00 0.00 71 1015.4